sensor_id;sensor_type;location;lat;lon;timestamp;pressure;altitude;pressure_sealevel;temperature;humidity
75998;BME280;64685;48.762;44.822;2023-07-13T00:02:26;100899.72;;;19.68;58.34
75998;BME280;64685;48.762;44.822;2023-07-13T00:07:32;100908.81;;;19.54;58.49
75998;BME280;64685;48.762;44.822;2023-07-13T00:12:36;100906.41;;;19.34;59.12
75998;BME280;64685;48.762;44.822;2023-07-13T00:17:39;100908.06;;;19.16;59.16
75998;BME280;64685;48.762;44.822;2023-07-13T00:22:42;100906.66;;;19.06;59.17
75998;BME280;64685;48.762;44.822;2023-07-13T00:27:47;100909.22;;;18.92;59.73
75998;BME280;64685;48.762;44.822;2023-07-13T00:32:53;100900.44;;;18.78;59.93
75998;BME280;64685;48.762;44.822;2023-07-13T00:38:16;100902.16;;;18.64;60.70
75998;BME280;64685;48.762;44.822;2023-07-13T00:43:21;100894.78;;;18.59;61.39
75998;BME280;64685;48.762;44.822;2023-07-13T00:48:28;100925.00;;;18.55;61.97
75998;BME280;64685;48.762;44.822;2023-07-13T00:53:32;100932.63;;;18.51;62.40
75998;BME280;64685;48.762;44.822;2023-07-13T00:58:36;100937.44;;;18.51;62.28
75998;BME280;64685;48.762;44.822;2023-07-13T01:03:39;100939.63;;;18.57;62.20
75998;BME280;64685;48.762;44.822;2023-07-13T01:08:42;100951.53;;;18.66;61.93
75998;BME280;64685;48.762;44.822;2023-07-13T01:13:45;100941.19;;;18.74;61.66
75998;BME280;64685;48.762;44.822;2023-07-13T01:18:48;100941.25;;;18.77;61.57
75998;BME280;64685;48.762;44.822;2023-07-13T01:23:51;100932.47;;;18.82;61.28
75998;BME280;64685;48.762;44.822;2023-07-13T01:28:55;100933.94;;;18.95;61.01
75998;BME280;64685;48.762;44.822;2023-07-13T01:33:58;100918.75;;;19.03;60.01
75998;BME280;64685;48.762;44.822;2023-07-13T01:39:02;100906.50;;;19.18;58.83
75998;BME280;64685;48.762;44.822;2023-07-13T01:44:05;100894.56;;;19.28;58.09
75998;BME280;64685;48.762;44.822;2023-07-13T01:49:07;100908.53;;;19.40;57.43
75998;BME280;64685;48.762;44.822;2023-07-13T01:54:10;100918.19;;;19.58;56.66
75998;BME280;64685;48.762;44.822;2023-07-13T01:59:13;100921.13;;;19.43;56.16
75998;BME280;64685;48.762;44.822;2023-07-13T02:04:15;100929.97;;;19.38;55.52
75998;BME280;64685;48.762;44.822;2023-07-13T02:09:18;100933.09;;;19.33;55.14
75998;BME280;64685;48.762;44.822;2023-07-13T02:14:21;100945.84;;;19.23;55.34
75998;BME280;64685;48.762;44.822;2023-07-13T02:19:24;100956.88;;;19.28;55.28
75998;BME280;64685;48.762;44.822;2023-07-13T02:24:26;100949.47;;;20.66;53.32
75998;BME280;64685;48.762;44.822;2023-07-13T02:29:29;100941.53;;;21.88;50.73
75998;BME280;64685;48.762;44.822;2023-07-13T02:34:32;100947.75;;;22.54;48.68
75998;BME280;64685;48.762;44.822;2023-07-13T02:39:35;100950.81;;;23.00;48.34
75998;BME280;64685;48.762;44.822;2023-07-13T02:44:38;100947.31;;;23.34;48.37
75998;BME280;64685;48.762;44.822;2023-07-13T02:49:40;100954.34;;;24.00;47.89
75998;BME280;64685;48.762;44.822;2023-07-13T02:54:43;100969.75;;;24.55;46.99
75998;BME280;64685;48.762;44.822;2023-07-13T02:59:46;100970.47;;;24.97;45.81
75998;BME280;64685;48.762;44.822;2023-07-13T03:04:48;100962.50;;;25.50;44.93
75998;BME280;64685;48.762;44.822;2023-07-13T03:09:56;100968.72;;;26.00;44.37
75998;BME280;64685;48.762;44.822;2023-07-13T03:15:07;100967.22;;;26.29;43.26
75998;BME280;64685;48.762;44.822;2023-07-13T03:20:13;100962.03;;;26.61;42.69
75998;BME280;64685;48.762;44.822;2023-07-13T03:25:16;100966.06;;;27.34;42.04
75998;BME280;64685;48.762;44.822;2023-07-13T03:30:20;100974.06;;;27.16;41.03
75998;BME280;64685;48.762;44.822;2023-07-13T03:35:23;100980.94;;;27.25;40.93
75998;BME280;64685;48.762;44.822;2023-07-13T03:40:27;100986.63;;;28.12;39.71
75998;BME280;64685;48.762;44.822;2023-07-13T03:45:30;101002.41;;;28.96;38.79
75998;BME280;64685;48.762;44.822;2023-07-13T03:50:32;100995.16;;;28.65;38.48
75998;BME280;64685;48.762;44.822;2023-07-13T03:55:35;101000.69;;;28.56;38.01
75998;BME280;64685;48.762;44.822;2023-07-13T04:00:38;101003.72;;;29.30;37.40
75998;BME280;64685;48.762;44.822;2023-07-13T04:05:40;101002.31;;;30.09;36.19
75998;BME280;64685;48.762;44.822;2023-07-13T04:10:43;101013.72;;;30.80;34.91
75998;BME280;64685;48.762;44.822;2023-07-13T04:15:46;101023.59;;;30.95;35.17
75998;BME280;64685;48.762;44.822;2023-07-13T04:20:49;101026.94;;;31.51;34.01
75998;BME280;64685;48.762;44.822;2023-07-13T04:25:53;101033.47;;;31.10;34.49
75998;BME280;64685;48.762;44.822;2023-07-13T04:30:56;101037.72;;;31.06;32.82
75998;BME280;64685;48.762;44.822;2023-07-13T04:35:59;101045.56;;;31.21;32.37
75998;BME280;64685;48.762;44.822;2023-07-13T04:41:07;101056.66;;;32.05;30.51
75998;BME280;64685;48.762;44.822;2023-07-13T04:46:13;101051.94;;;32.61;29.91
75998;BME280;64685;48.762;44.822;2023-07-13T04:51:16;101050.28;;;33.19;28.75
75998;BME280;64685;48.762;44.822;2023-07-13T04:56:19;101051.69;;;33.14;27.91
75998;BME280;64685;48.762;44.822;2023-07-13T05:01:22;101070.53;;;33.53;28.22
75998;BME280;64685;48.762;44.822;2023-07-13T05:06:24;101068.84;;;33.86;26.98
75998;BME280;64685;48.762;44.822;2023-07-13T05:11:27;101087.19;;;34.04;26.32
75998;BME280;64685;48.762;44.822;2023-07-13T05:16:29;101076.53;;;34.32;26.44
75998;BME280;64685;48.762;44.822;2023-07-13T05:21:32;101072.09;;;34.49;27.13
75998;BME280;64685;48.762;44.822;2023-07-13T05:26:35;101073.56;;;35.20;26.09
75998;BME280;64685;48.762;44.822;2023-07-13T05:31:37;101074.72;;;35.40;24.04
75998;BME280;64685;48.762;44.822;2023-07-13T05:36:42;101062.84;;;34.32;24.47
75998;BME280;64685;48.762;44.822;2023-07-13T05:41:45;101056.53;;;31.96;26.53
75998;BME280;64685;48.762;44.822;2023-07-13T05:46:48;101055.19;;;30.38;28.34
75998;BME280;64685;48.762;44.822;2023-07-13T05:51:50;101061.41;;;29.04;29.60
75998;BME280;64685;48.762;44.822;2023-07-13T05:56:53;101067.50;;;27.84;30.25
75998;BME280;64685;48.762;44.822;2023-07-13T06:01:55;101063.94;;;27.43;31.61
75998;BME280;64685;48.762;44.822;2023-07-13T06:06:58;101063.41;;;27.18;33.06
75998;BME280;64685;48.762;44.822;2023-07-13T06:12:01;101067.75;;;26.92;33.19
75998;BME280;64685;48.762;44.822;2023-07-13T06:17:03;101070.44;;;26.69;33.82
75998;BME280;64685;48.762;44.822;2023-07-13T06:22:06;101065.94;;;26.68;33.73
75998;BME280;64685;48.762;44.822;2023-07-13T06:27:09;101077.28;;;26.31;35.05
75998;BME280;64685;48.762;44.822;2023-07-13T06:32:11;101075.94;;;25.92;35.65
75998;BME280;64685;48.762;44.822;2023-07-13T06:37:14;101075.22;;;25.63;35.77
75998;BME280;64685;48.762;44.822;2023-07-13T06:42:17;101072.41;;;25.56;36.37
75998;BME280;64685;48.762;44.822;2023-07-13T06:47:19;101075.78;;;25.27;36.62
75998;BME280;64685;48.762;44.822;2023-07-13T06:52:22;101073.69;;;25.38;36.81
75998;BME280;64685;48.762;44.822;2023-07-13T06:57:25;101076.97;;;25.40;36.91
75998;BME280;64685;48.762;44.822;2023-07-13T07:02:28;101078.56;;;25.51;37.33
75998;BME280;64685;48.762;44.822;2023-07-13T07:07:31;101076.75;;;25.82;37.51
75998;BME280;64685;48.762;44.822;2023-07-13T07:12:34;101076.94;;;26.22;36.83
75998;BME280;64685;48.762;44.822;2023-07-13T07:17:36;101088.00;;;26.75;35.21
75998;BME280;64685;48.762;44.822;2023-07-13T07:22:39;101069.19;;;27.11;34.01
75998;BME280;64685;48.762;44.822;2023-07-13T07:27:42;101073.34;;;27.06;33.38
75998;BME280;64685;48.762;44.822;2023-07-13T07:32:47;101069.19;;;28.84;31.98
75998;BME280;64685;48.762;44.822;2023-07-13T07:37:52;101074.50;;;31.18;29.26
75998;BME280;64685;48.762;44.822;2023-07-13T07:42:55;101069.75;;;32.34;27.62
75998;BME280;64685;48.762;44.822;2023-07-13T07:47:58;101073.44;;;32.85;27.14
75998;BME280;64685;48.762;44.822;2023-07-13T07:53:01;101055.72;;;31.83;26.97
75998;BME280;64685;48.762;44.822;2023-07-13T07:58:05;101059.78;;;32.60;26.96
75998;BME280;64685;48.762;44.822;2023-07-13T08:03:28;101054.91;;;33.29;24.72
75998;BME280;64685;48.762;44.822;2023-07-13T08:08:50;101063.09;;;33.95;23.17
75998;BME280;64685;48.762;44.822;2023-07-13T08:13:53;101072.44;;;33.90;21.54
75998;BME280;64685;48.762;44.822;2023-07-13T08:18:56;101071.13;;;33.14;22.89
75998;BME280;64685;48.762;44.822;2023-07-13T08:23:59;101067.03;;;33.58;22.37
75998;BME280;64685;48.762;44.822;2023-07-13T08:29:02;101063.81;;;34.78;20.81
75998;BME280;64685;48.762;44.822;2023-07-13T08:34:05;101063.19;;;33.27;22.24
75998;BME280;64685;48.762;44.822;2023-07-13T08:39:08;101069.72;;;33.18;23.13
75998;BME280;64685;48.762;44.822;2023-07-13T08:44:22;101081.38;;;33.06;22.06
75998;BME280;64685;48.762;44.822;2023-07-13T08:49:30;101076.03;;;33.04;21.06
75998;BME280;64685;48.762;44.822;2023-07-13T08:54:37;101073.63;;;33.24;21.46
75998;BME280;64685;48.762;44.822;2023-07-13T08:59:41;101084.44;;;34.10;20.63
75998;BME280;64685;48.762;44.822;2023-07-13T09:04:50;101076.94;;;34.52;20.78
75998;BME280;64685;48.762;44.822;2023-07-13T09:10:05;101079.19;;;35.05;21.18
75998;BME280;64685;48.762;44.822;2023-07-13T09:15:38;101066.16;;;35.46;20.67
75998;BME280;64685;48.762;44.822;2023-07-13T09:20:43;101057.59;;;35.42;19.68
75998;BME280;64685;48.762;44.822;2023-07-13T09:25:48;101064.66;;;32.51;21.23
75998;BME280;64685;48.762;44.822;2023-07-13T09:31:04;101085.13;;;32.94;21.65
75998;BME280;64685;48.762;44.822;2023-07-13T09:36:24;101061.44;;;32.49;22.27
75998;BME280;64685;48.762;44.822;2023-07-13T09:41:36;101075.81;;;30.53;23.90
75998;BME280;64685;48.762;44.822;2023-07-13T09:47:00;101082.66;;;30.43;25.06
75998;BME280;64685;48.762;44.822;2023-07-13T09:52:06;101078.06;;;30.29;24.61
75998;BME280;64685;48.762;44.822;2023-07-13T09:57:15;101073.72;;;32.28;22.79
75998;BME280;64685;48.762;44.822;2023-07-13T10:02:28;101074.72;;;30.31;24.14
75998;BME280;64685;48.762;44.822;2023-07-13T10:07:35;101067.56;;;32.63;22.78
75998;BME280;64685;48.762;44.822;2023-07-13T10:12:40;101071.88;;;33.61;21.68
75998;BME280;64685;48.762;44.822;2023-07-13T10:17:43;101066.69;;;33.34;20.77
75998;BME280;64685;48.762;44.822;2023-07-13T10:23:02;101066.28;;;32.77;21.73
75998;BME280;64685;48.762;44.822;2023-07-13T10:33:22;101058.38;;;32.65;22.44
75998;BME280;64685;48.762;44.822;2023-07-13T10:38:25;101070.25;;;33.38;22.22
75998;BME280;64685;48.762;44.822;2023-07-13T10:43:43;101073.34;;;33.44;21.84
75998;BME280;64685;48.762;44.822;2023-07-13T10:48:51;101060.97;;;32.38;21.46
75998;BME280;64685;48.762;44.822;2023-07-13T10:54:17;101049.00;;;31.73;22.29
75998;BME280;64685;48.762;44.822;2023-07-13T10:59:27;101049.16;;;30.81;22.75
75998;BME280;64685;48.762;44.822;2023-07-13T11:04:49;101057.50;;;30.11;25.00
75998;BME280;64685;48.762;44.822;2023-07-13T11:09:54;101049.13;;;29.42;25.19
75998;BME280;64685;48.762;44.822;2023-07-13T11:15:01;101043.78;;;29.02;25.59
75998;BME280;64685;48.762;44.822;2023-07-13T11:25:24;101038.91;;;28.76;26.06
75998;BME280;64685;48.762;44.822;2023-07-13T11:30:38;101036.16;;;28.46;26.73
75998;BME280;64685;48.762;44.822;2023-07-13T11:35:49;101030.44;;;28.46;26.46
75998;BME280;64685;48.762;44.822;2023-07-13T11:40:54;101030.69;;;28.55;26.25
75998;BME280;64685;48.762;44.822;2023-07-13T11:45:57;101017.56;;;28.27;26.96
75998;BME280;64685;48.762;44.822;2023-07-13T11:51:03;101025.00;;;28.25;27.67
75998;BME280;64685;48.762;44.822;2023-07-13T11:56:07;101009.88;;;28.21;27.30
75998;BME280;64685;48.762;44.822;2023-07-13T12:01:15;101034.56;;;27.62;27.07
75998;BME280;64685;48.762;44.822;2023-07-13T12:11:34;101037.06;;;27.90;27.54
75998;BME280;64685;48.762;44.822;2023-07-13T12:16:43;101033.75;;;28.18;27.48
75998;BME280;64685;48.762;44.822;2023-07-13T12:21:48;101029.97;;;27.68;27.53
75998;BME280;64685;48.762;44.822;2023-07-13T12:32:02;101034.31;;;27.16;29.34
75998;BME280;64685;48.762;44.822;2023-07-13T12:37:11;101033.03;;;27.20;28.71
75998;BME280;64685;48.762;44.822;2023-07-13T12:47:28;101026.53;;;27.16;28.71
75998;BME280;64685;48.762;44.822;2023-07-13T12:52:34;101014.22;;;27.16;29.58
75998;BME280;64685;48.762;44.822;2023-07-13T12:57:41;101013.88;;;27.10;28.57
75998;BME280;64685;48.762;44.822;2023-07-13T13:02:50;101005.81;;;26.98;28.65
75998;BME280;64685;48.762;44.822;2023-07-13T13:07:53;101016.50;;;26.94;28.75
75998;BME280;64685;48.762;44.822;2023-07-13T13:12:56;101007.19;;;26.87;28.69
75998;BME280;64685;48.762;44.822;2023-07-13T13:17:58;101009.00;;;27.07;29.20
75998;BME280;64685;48.762;44.822;2023-07-13T13:23:01;101005.72;;;27.09;28.65
75998;BME280;64685;48.762;44.822;2023-07-13T13:28:16;100988.94;;;27.07;28.52
75998;BME280;64685;48.762;44.822;2023-07-13T13:33:20;100983.81;;;26.92;29.09
75998;BME280;64685;48.762;44.822;2023-07-13T13:38:26;100986.19;;;26.60;28.94
75998;BME280;64685;48.762;44.822;2023-07-13T13:43:29;100988.78;;;26.44;28.75
75998;BME280;64685;48.762;44.822;2023-07-13T13:48:33;100994.53;;;26.40;29.35
75998;BME280;64685;48.762;44.822;2023-07-13T13:53:37;100992.53;;;26.34;29.73
75998;BME280;64685;48.762;44.822;2023-07-13T13:58:40;100989.78;;;26.23;29.83
75998;BME280;64685;48.762;44.822;2023-07-13T14:03:43;100983.69;;;26.18;30.17
75998;BME280;64685;48.762;44.822;2023-07-13T14:08:46;100973.97;;;26.05;30.32
75998;BME280;64685;48.762;44.822;2023-07-13T14:13:56;100971.97;;;25.98;30.47
75998;BME280;64685;48.762;44.822;2023-07-13T14:19:00;100967.94;;;25.89;31.07
75998;BME280;64685;48.762;44.822;2023-07-13T14:24:03;100968.88;;;25.72;31.65
75998;BME280;64685;48.762;44.822;2023-07-13T14:29:15;100963.91;;;25.83;31.10
75998;BME280;64685;48.762;44.822;2023-07-13T14:34:21;100969.72;;;25.72;31.05
75998;BME280;64685;48.762;44.822;2023-07-13T14:39:25;100971.41;;;25.63;31.26
75998;BME280;64685;48.762;44.822;2023-07-13T14:44:29;100969.09;;;25.40;31.74
75998;BME280;64685;48.762;44.822;2023-07-13T14:49:41;100972.03;;;25.30;32.32
75998;BME280;64685;48.762;44.822;2023-07-13T14:54:44;100971.53;;;25.42;32.30
75998;BME280;64685;48.762;44.822;2023-07-13T14:59:48;100969.47;;;25.46;31.78
75998;BME280;64685;48.762;44.822;2023-07-13T15:04:51;100975.28;;;25.21;32.35
75998;BME280;64685;48.762;44.822;2023-07-13T15:09:54;100970.06;;;24.99;32.48
75998;BME280;64685;48.762;44.822;2023-07-13T15:14:56;100981.16;;;24.90;32.81
75998;BME280;64685;48.762;44.822;2023-07-13T15:19:59;100969.31;;;24.81;33.08
75998;BME280;64685;48.762;44.822;2023-07-13T15:25:03;100962.41;;;24.75;33.03
75998;BME280;64685;48.762;44.822;2023-07-13T15:30:08;100972.63;;;24.72;33.98
75998;BME280;64685;48.762;44.822;2023-07-13T15:35:20;100975.91;;;24.64;33.42
75998;BME280;64685;48.762;44.822;2023-07-13T15:40:24;100968.56;;;24.56;33.46
75998;BME280;64685;48.762;44.822;2023-07-13T15:45:26;100983.66;;;24.53;33.45
75998;BME280;64685;48.762;44.822;2023-07-13T15:50:42;100986.53;;;24.46;33.60
75998;BME280;64685;48.762;44.822;2023-07-13T15:55:45;100975.91;;;24.36;34.10
75998;BME280;64685;48.762;44.822;2023-07-13T16:00:48;100983.28;;;24.23;34.11
75998;BME280;64685;48.762;44.822;2023-07-13T16:05:55;100985.31;;;24.15;34.17
75998;BME280;64685;48.762;44.822;2023-07-13T16:10:59;100995.91;;;24.11;34.17
75998;BME280;64685;48.762;44.822;2023-07-13T16:16:09;100993.47;;;24.06;34.80
75998;BME280;64685;48.762;44.822;2023-07-13T16:21:13;100999.56;;;23.98;34.75
75998;BME280;64685;48.762;44.822;2023-07-13T16:26:30;101002.03;;;23.92;35.16
75998;BME280;64685;48.762;44.822;2023-07-13T16:31:42;101009.34;;;23.79;36.06
75998;BME280;64685;48.762;44.822;2023-07-13T16:36:47;101003.19;;;23.74;36.00
75998;BME280;64685;48.762;44.822;2023-07-13T16:41:52;101017.84;;;23.62;36.32
75998;BME280;64685;48.762;44.822;2023-07-13T16:46:55;101024.34;;;23.55;36.73
75998;BME280;64685;48.762;44.822;2023-07-13T16:52:04;101019.00;;;23.40;36.72
75998;BME280;64685;48.762;44.822;2023-07-13T16:57:20;101024.69;;;23.40;36.86
75998;BME280;64685;48.762;44.822;2023-07-13T17:02:35;101028.69;;;23.25;37.19
75998;BME280;64685;48.762;44.822;2023-07-13T17:07:41;101028.63;;;23.11;37.52
75998;BME280;64685;48.762;44.822;2023-07-13T17:12:45;101030.97;;;22.95;37.79
75998;BME280;64685;48.762;44.822;2023-07-13T17:17:50;101052.88;;;22.84;37.97
75998;BME280;64685;48.762;44.822;2023-07-13T17:22:53;101057.34;;;22.78;38.35
75998;BME280;64685;48.762;44.822;2023-07-13T17:27:56;101061.75;;;22.68;38.60
75998;BME280;64685;48.762;44.822;2023-07-13T17:32:59;101060.88;;;22.61;39.03
75998;BME280;64685;48.762;44.822;2023-07-13T17:38:03;101062.84;;;22.53;39.48
75998;BME280;64685;48.762;44.822;2023-07-13T17:43:08;101059.94;;;22.46;39.98
75998;BME280;64685;48.762;44.822;2023-07-13T17:48:10;101064.00;;;22.45;40.36
75998;BME280;64685;48.762;44.822;2023-07-13T17:53:17;101055.94;;;22.54;40.73
75998;BME280;64685;48.762;44.822;2023-07-13T17:58:21;101063.22;;;22.52;40.88
75998;BME280;64685;48.762;44.822;2023-07-13T18:03:27;101064.75;;;22.42;41.00
75998;BME280;64685;48.762;44.822;2023-07-13T18:08:35;101068.91;;;22.48;40.92
75998;BME280;64685;48.762;44.822;2023-07-13T18:13:37;101071.28;;;22.43;40.93
75998;BME280;64685;48.762;44.822;2023-07-13T18:18:42;101080.16;;;22.34;41.12
75998;BME280;64685;48.762;44.822;2023-07-13T18:23:47;101084.66;;;22.39;41.13
75998;BME280;64685;48.762;44.822;2023-07-13T18:28:50;101070.59;;;22.53;41.12
75998;BME280;64685;48.762;44.822;2023-07-13T18:33:54;101064.91;;;22.56;41.13
75998;BME280;64685;48.762;44.822;2023-07-13T18:38:57;101091.81;;;22.62;41.37
75998;BME280;64685;48.762;44.822;2023-07-13T18:44:00;101083.69;;;22.68;41.26
75998;BME280;64685;48.762;44.822;2023-07-13T18:49:03;101071.91;;;22.66;41.12
75998;BME280;64685;48.762;44.822;2023-07-13T18:54:13;101068.59;;;22.60;40.98
75998;BME280;64685;48.762;44.822;2023-07-13T18:59:16;101077.53;;;22.59;41.14
75998;BME280;64685;48.762;44.822;2023-07-13T19:04:30;101077.06;;;22.50;41.52
75998;BME280;64685;48.762;44.822;2023-07-13T19:09:33;101080.97;;;22.38;41.70
75998;BME280;64685;48.762;44.822;2023-07-13T19:14:35;101077.31;;;22.34;41.90
75998;BME280;64685;48.762;44.822;2023-07-13T19:19:38;101084.34;;;22.47;41.20
75998;BME280;64685;48.762;44.822;2023-07-13T19:24:41;101086.47;;;22.57;41.49
75998;BME280;64685;48.762;44.822;2023-07-13T19:29:43;101077.13;;;22.60;41.66
75998;BME280;64685;48.762;44.822;2023-07-13T19:34:46;101077.91;;;22.54;41.76
75998;BME280;64685;48.762;44.822;2023-07-13T19:39:49;101068.50;;;22.50;41.76
75998;BME280;64685;48.762;44.822;2023-07-13T19:44:56;101078.66;;;22.47;42.02
75998;BME280;64685;48.762;44.822;2023-07-13T19:49:59;101072.06;;;22.40;42.17
75998;BME280;64685;48.762;44.822;2023-07-13T19:55:11;101071.63;;;22.34;42.14
75998;BME280;64685;48.762;44.822;2023-07-13T20:00:23;101075.22;;;22.28;42.15
75998;BME280;64685;48.762;44.822;2023-07-13T20:05:26;101072.66;;;22.16;42.35
75998;BME280;64685;48.762;44.822;2023-07-13T20:10:30;101075.88;;;22.11;42.46
75998;BME280;64685;48.762;44.822;2023-07-13T20:15:35;101065.63;;;22.03;42.68
75998;BME280;64685;48.762;44.822;2023-07-13T20:20:40;101068.78;;;21.91;43.32
75998;BME280;64685;48.762;44.822;2023-07-13T20:25:47;101058.16;;;21.88;43.31
75998;BME280;64685;48.762;44.822;2023-07-13T20:30:50;101057.28;;;21.84;43.61
75998;BME280;64685;48.762;44.822;2023-07-13T20:36:00;101049.47;;;21.74;43.94
75998;BME280;64685;48.762;44.822;2023-07-13T20:41:03;101046.88;;;21.62;44.28
75998;BME280;64685;48.762;44.822;2023-07-13T20:46:12;101032.94;;;21.50;44.50
75998;BME280;64685;48.762;44.822;2023-07-13T20:51:18;101039.75;;;21.42;45.11
75998;BME280;64685;48.762;44.822;2023-07-13T20:56:23;101044.16;;;21.36;45.14
75998;BME280;64685;48.762;44.822;2023-07-13T21:01:33;101046.84;;;21.25;45.95
75998;BME280;64685;48.762;44.822;2023-07-13T21:06:36;101035.34;;;21.15;45.81
75998;BME280;64685;48.762;44.822;2023-07-13T21:11:39;101032.38;;;21.04;46.31
75998;BME280;64685;48.762;44.822;2023-07-13T21:16:42;101048.84;;;20.92;46.65
75998;BME280;64685;48.762;44.822;2023-07-13T21:21:45;101049.13;;;20.87;46.82
75998;BME280;64685;48.762;44.822;2023-07-13T21:26:48;101030.00;;;20.84;47.18
75998;BME280;64685;48.762;44.822;2023-07-13T21:31:50;101031.16;;;20.79;47.50
75998;BME280;64685;48.762;44.822;2023-07-13T21:36:53;101032.72;;;20.73;47.68
75998;BME280;64685;48.762;44.822;2023-07-13T21:42:01;101033.03;;;20.68;47.94
75998;BME280;64685;48.762;44.822;2023-07-13T21:47:03;101017.50;;;20.59;48.10
75998;BME280;64685;48.762;44.822;2023-07-13T21:52:16;101019.91;;;20.57;48.22
75998;BME280;64685;48.762;44.822;2023-07-13T21:57:19;101007.25;;;20.51;48.29
75998;BME280;64685;48.762;44.822;2023-07-13T22:02:22;100999.91;;;20.50;48.65
75998;BME280;64685;48.762;44.822;2023-07-13T22:07:24;100995.00;;;20.47;48.81
75998;BME280;64685;48.762;44.822;2023-07-13T22:12:27;100996.28;;;20.49;48.86
75998;BME280;64685;48.762;44.822;2023-07-13T22:17:29;100993.44;;;20.49;48.75
75998;BME280;64685;48.762;44.822;2023-07-13T22:22:32;100995.75;;;20.44;48.63
75998;BME280;64685;48.762;44.822;2023-07-13T22:27:35;100986.16;;;20.26;49.04
75998;BME280;64685;48.762;44.822;2023-07-13T22:32:38;100981.50;;;20.11;49.46
75998;BME280;64685;48.762;44.822;2023-07-13T22:37:41;100979.25;;;20.01;50.15
75998;BME280;64685;48.762;44.822;2023-07-13T22:42:45;100966.09;;;19.89;50.65
75998;BME280;64685;48.762;44.822;2023-07-13T22:47:47;100960.94;;;19.72;51.22
75998;BME280;64685;48.762;44.822;2023-07-13T22:52:53;100968.31;;;19.54;52.14
75998;BME280;64685;48.762;44.822;2023-07-13T22:57:56;100943.66;;;19.36;52.59
75998;BME280;64685;48.762;44.822;2023-07-13T23:02:58;100945.59;;;19.32;52.71
75998;BME280;64685;48.762;44.822;2023-07-13T23:08:01;100939.88;;;19.28;52.92
75998;BME280;64685;48.762;44.822;2023-07-13T23:13:04;100949.88;;;19.22;52.90
75998;BME280;64685;48.762;44.822;2023-07-13T23:18:09;100950.72;;;19.23;53.29
75998;BME280;64685;48.762;44.822;2023-07-13T23:23:16;100949.16;;;19.25;53.47
75998;BME280;64685;48.762;44.822;2023-07-13T23:28:19;100951.16;;;19.25;53.47
75998;BME280;64685;48.762;44.822;2023-07-13T23:33:25;100959.63;;;19.25;53.84
75998;BME280;64685;48.762;44.822;2023-07-13T23:38:29;100952.72;;;19.22;53.82
75998;BME280;64685;48.762;44.822;2023-07-13T23:43:31;100946.25;;;19.22;53.97
75998;BME280;64685;48.762;44.822;2023-07-13T23:48:34;100946.59;;;19.20;54.22
75998;BME280;64685;48.762;44.822;2023-07-13T23:53:36;100942.84;;;19.16;54.38
75998;BME280;64685;48.762;44.822;2023-07-13T23:58:39;100936.13;;;19.21;54.34
